Time;durP1;ratioP1;P1;durP2;ratioP2;P2;SDS_P1;SDS_P2;PMS_P1;PMS_P2;Temp;Humidity;BMP_temperature;BMP_pressure;BME280_temperature;BME280_humidity;BME280_pressure;Samples;Min_cycle;Max_cycle;Signal;HPM_P1;HPM_P2
2022/04/06 00:00:45;;;;;;;;;;;;;;;9.53;81.78;100090.66;4901079;29;19941;-83
2022/04/06 00:03:11;;;;;;;;;;;;;;;9.54;81.79;100089.66;4883540;29;19920;-87
2022/04/06 00:05:36;;;;;;;;;;;;;;;9.48;81.75;100085.00;4882605;29;19962;-83
2022/04/06 00:08:02;;;;;;;;;;;;;;;9.45;81.81;100084.50;4882485;29;19943;-84
2022/04/06 00:10:28;;;;;;;;;;;;;;;9.35;83.08;100084.69;4886439;29;19963;-85
2022/04/06 00:12:53;;;;;;;;;;;;;;;9.45;82.25;100088.00;4894196;29;19919;-86
2022/04/06 00:15:19;;;;;;;;;;;;;;;9.36;82.68;100081.06;4901069;29;19921;-82
2022/04/06 00:17:46;;;;;;;;;;;;;;;9.25;84.03;100084.00;4901561;29;19926;-84
2022/04/06 00:20:12;;;;;;;;;;;;;;;9.01;85.02;100084.00;4884747;29;19919;-84
2022/04/06 00:22:37;;;;;;;;;;;;;;;9.34;82.99;100078.59;4900765;29;20010;-85
2022/04/06 00:25:03;;;;;;;;;;;;;;;9.47;81.55;100078.09;4900542;29;19926;-83
2022/04/06 00:27:28;;;;;;;;;;;;;;;9.64;80.87;100077.09;4900836;29;19922;-85
2022/04/06 00:29:54;;;;;;;;;;;;;;;9.68;80.24;100075.75;4886185;29;19954;-82
2022/04/06 00:32:20;;;;;;;;;;;;;;;9.49;81.69;100075.25;4903532;29;20082;-82
2022/04/06 00:37:32;;;;;;;;;;;;;;;9.06;83.04;100076.41;4918361;29;19923;-82
2022/04/06 00:39:57;;;;;;;;;;;;;;;9.04;83.75;100075.75;4919372;29;19975;-82
2022/04/06 00:42:26;;;;;;;;;;;;;;;8.89;84.05;100074.72;4905224;29;19919;-84
2022/04/06 00:44:51;;;;;;;;;;;;;;;8.69;85.04;100076.81;4901245;29;19926;-83
2022/04/06 00:47:16;;;;;;;;;;;;;;;8.85;84.73;100076.06;4894041;29;19927;-85
2022/04/06 00:49:42;;;;;;;;;;;;;;;8.53;87.07;100071.47;4873933;29;20403;-86
2022/04/06 00:52:08;;;;;;;;;;;;;;;8.40;88.39;100065.81;4890147;29;19920;-82
2022/04/06 00:54:37;;;;;;;;;;;;;;;8.37;88.98;100066.13;4888713;29;20391;-83
2022/04/06 00:57:03;;;;;;;;;;;;;;;8.49;88.02;100065.69;4889691;29;19920;-84
2022/04/06 00:59:30;;;;;;;;;;;;;;;8.54;87.62;100073.97;4889638;29;19984;-84
2022/04/06 01:01:55;;;;;;;;;;;;;;;8.56;87.16;100073.81;4888783;29;20327;-80
2022/04/06 01:04:21;;;;;;;;;;;;;;;8.48;87.37;100069.34;4891051;29;19962;-83
2022/04/06 01:06:51;;;;;;;;;;;;;;;8.62;87.87;100074.00;4889896;29;20316;-85
2022/04/06 01:09:18;;;;;;;;;;;;;;;8.80;84.85;100074.72;4889224;29;19915;-87
2022/04/06 01:11:50;;;;;;;;;;;;;;;8.46;87.10;100071.28;4882145;29;20352;-82
2022/04/06 01:14:15;;;;;;;;;;;;;;;8.43;87.62;100070.78;4881120;29;19915;-83
2022/04/06 01:16:41;;;;;;;;;;;;;;;8.35;89.34;100068.97;4882074;29;19966;-82
2022/04/06 01:19:07;;;;;;;;;;;;;;;8.34;88.64;100066.47;4881667;29;19947;-83
2022/04/06 01:21:32;;;;;;;;;;;;;;;8.34;88.85;100071.75;4864261;29;19920;-83
2022/04/06 01:23:57;;;;;;;;;;;;;;;8.31;88.86;100070.25;4880154;29;19967;-83
2022/04/06 01:26:23;;;;;;;;;;;;;;;8.36;88.54;100065.31;4880811;29;19919;-82
2022/04/06 01:28:48;;;;;;;;;;;;;;;8.46;88.66;100063.38;4881260;29;19916;-83
2022/04/06 01:31:14;;;;;;;;;;;;;;;8.68;86.96;100067.25;4881888;29;20022;-86
2022/04/06 01:33:40;;;;;;;;;;;;;;;8.54;87.81;100065.22;4881339;29;19927;-82
2022/04/06 01:36:05;;;;;;;;;;;;;;;8.52;87.65;100062.72;4881158;29;19923;-83
2022/04/06 01:38:31;;;;;;;;;;;;;;;8.46;87.73;100067.81;4881002;29;19947;-81
2022/04/06 01:40:56;;;;;;;;;;;;;;;8.38;88.29;100063.34;4881539;29;19968;-82
2022/04/06 01:43:22;;;;;;;;;;;;;;;8.71;86.79;100065.13;4884138;29;19951;-82
2022/04/06 01:45:47;;;;;;;;;;;;;;;8.92;84.63;100069.09;4882061;29;19935;-82
2022/04/06 01:48:13;;;;;;;;;;;;;;;8.83;84.23;100069.09;4882324;29;19984;-84
2022/04/06 01:53:23;;;;;;;;;;;;;;;8.27;89.05;100055.69;4882097;29;19963;-82
2022/04/06 01:55:48;;;;;;;;;;;;;;;8.34;88.07;100062.00;4881136;29;20328;-82
2022/04/06 01:58:14;;;;;;;;;;;;;;;8.50;86.68;100055.97;4880364;29;20450;-83
2022/04/06 02:00:40;;;;;;;;;;;;;;;8.46;86.69;100058.09;4881009;29;19919;-83
2022/04/06 02:03:06;;;;;;;;;;;;;;;8.52;87.26;100059.25;4880775;29;20006;-83
2022/04/06 02:05:33;;;;;;;;;;;;;;;8.66;86.60;100054.19;4881078;29;20363;-85
2022/04/06 02:08:00;;;;;;;;;;;;;;;8.36;88.69;100064.47;4884461;29;19966;-81
2022/04/06 02:10:27;;;;;;;;;;;;;;;8.15;89.59;100062.22;4886674;29;19930;-82
2022/04/06 02:12:54;;;;;;;;;;;;;;;8.19;90.30;100058.25;4882901;29;19916;-81
2022/04/06 02:15:20;;;;;;;;;;;;;;;8.28;89.35;100065.28;4879355;29;19919;-83
2022/04/06 02:17:46;;;;;;;;;;;;;;;8.09;91.62;100057.56;4880612;29;19926;-82
2022/04/06 02:20:12;;;;;;;;;;;;;;;7.87;92.77;100068.66;4863830;29;19924;-82
2022/04/06 02:22:38;;;;;;;;;;;;;;;8.02;92.43;100061.84;4880766;29;19919;-81
2022/04/06 02:25:04;;;;;;;;;;;;;;;8.27;89.99;100067.06;4880005;29;20265;-83
2022/04/06 02:27:29;;;;;;;;;;;;;;;8.35;89.05;100066.31;4880300;29;19919;-82
2022/04/06 02:29:55;;;;;;;;;;;;;;;8.10;90.88;100064.50;4879844;29;19927;-81
2022/04/06 02:32:21;;;;;;;;;;;;;;;7.93;93.11;100060.94;4879265;29;19915;-83
2022/04/06 02:34:46;;;;;;;;;;;;;;;7.92;93.10;100061.91;4879674;29;19969;-83
2022/04/06 02:37:12;;;;;;;;;;;;;;;7.84;93.74;100058.41;4880286;29;19924;-82
2022/04/06 02:39:37;;;;;;;;;;;;;;;8.02;92.92;100056.56;4878755;29;20375;-83
2022/04/06 02:42:03;;;;;;;;;;;;;;;7.98;92.23;100058.69;4878971;29;19919;-81
2022/04/06 02:44:29;;;;;;;;;;;;;;;7.93;92.39;100053.03;4881056;29;19919;-83
2022/04/06 02:46:54;;;;;;;;;;;;;;;7.85;94.53;100052.16;4880005;29;19934;-83
2022/04/06 02:49:22;;;;;;;;;;;;;;;8.18;91.65;100056.63;4882866;29;19926;-82
2022/04/06 02:51:47;;;;;;;;;;;;;;;7.97;93.59;100048.28;4881626;29;20036;-81
2022/04/06 02:54:13;;;;;;;;;;;;;;;7.80;95.74;100048.19;4880166;29;20017;-83
2022/04/06 02:56:38;;;;;;;;;;;;;;;7.68;96.42;100044.16;4880978;29;20402;-84
2022/04/06 02:59:04;;;;;;;;;;;;;;;7.57;98.10;100039.13;4882806;29;19926;-84
2022/04/06 03:01:29;;;;;;;;;;;;;;;7.50;98.98;100039.91;4886475;29;19944;-83
2022/04/06 03:03:55;;;;;;;;;;;;;;;7.52;98.88;100038.78;4888009;29;19924;-83
2022/04/06 03:06:20;;;;;;;;;;;;;;;7.67;98.49;100039.84;4880954;29;19980;-83
2022/04/06 03:08:46;;;;;;;;;;;;;;;7.85;96.22;100038.97;4881295;29;19962;-85
2022/04/06 03:11:12;;;;;;;;;;;;;;;7.65;97.40;100033.94;4881331;29;20302;-84
2022/04/06 03:13:38;;;;;;;;;;;;;;;7.69;96.80;100024.69;4863625;29;19967;-84
2022/04/06 03:16:05;;;;;;;;;;;;;;;7.61;96.90;100027.28;4880880;29;19967;-85
2022/04/06 03:18:30;;;;;;;;;;;;;;;7.38;97.70;100027.94;4880008;29;19944;-85
2022/04/06 03:20:56;;;;;;;;;;;;;;;7.32;96.62;100033.84;4879916;29;19936;-84
2022/04/06 03:23:21;;;;;;;;;;;;;;;7.27;95.96;100039.56;4880413;29;19926;-84
2022/04/06 03:25:47;;;;;;;;;;;;;;;7.18;96.37;100035.22;4880269;29;19920;-85
2022/04/06 03:28:13;;;;;;;;;;;;;;;7.30;95.25;100039.25;4883754;29;19924;-84
2022/04/06 03:30:38;;;;;;;;;;;;;;;7.38;94.45;100033.22;4888163;29;19915;-83
2022/04/06 03:33:04;;;;;;;;;;;;;;;7.42;93.33;100024.03;4884758;29;19926;-85
2022/04/06 03:35:29;;;;;;;;;;;;;;;7.40;92.42;100018.91;4863525;29;19919;-84
2022/04/06 03:37:55;;;;;;;;;;;;;;;7.63;91.75;100025.31;4879785;29;19920;-84
2022/04/06 03:40:20;;;;;;;;;;;;;;;7.67;91.27;100018.75;4878843;29;19919;-85
2022/04/06 03:42:46;;;;;;;;;;;;;;;7.47;92.55;100014.66;4879293;29;20295;-85
2022/04/06 03:45:11;;;;;;;;;;;;;;;7.45;92.57;100021.09;4880667;29;19966;-83
2022/04/06 03:47:37;;;;;;;;;;;;;;;7.27;93.57;100031.66;4881676;29;20307;-82
2022/04/06 03:50:04;;;;;;;;;;;;;;;7.20;94.84;100027.97;4883333;29;19991;-86
2022/04/06 03:52:29;;;;;;;;;;;;;;;7.33;93.92;100033.66;4884286;29;19920;-83
2022/04/06 03:54:55;;;;;;;;;;;;;;;7.31;93.94;100030.38;4883698;29;19926;-83
2022/04/06 03:57:20;;;;;;;;;;;;;;;7.33;94.89;100023.13;4883801;29;19919;-84
2022/04/06 03:59:46;;;;;;;;;;;;;;;7.43;94.44;100023.88;4883856;29;19920;-84
2022/04/06 04:02:11;;;;;;;;;;;;;;;7.54;92.18;100020.97;4883534;29;20003;-86
2022/04/06 04:04:37;;;;;;;;;;;;;;;7.43;92.79;100017.75;4884635;29;19988;-83
2022/04/06 04:07:02;;;;;;;;;;;;;;;7.68;91.35;100022.22;4885497;29;19924;-83
2022/04/06 04:09:28;;;;;;;;;;;;;;;7.77;90.00;100022.13;4889618;29;20048;-81
2022/04/06 04:11:56;;;;;;;;;;;;;;;7.63;88.86;100020.03;4888230;29;19919;-81
2022/04/06 04:14:22;;;;;;;;;;;;;;;7.41;90.39;100014.47;4886749;29;19920;-82
2022/04/06 04:16:47;;;;;;;;;;;;;;;7.31;91.08;100022.47;4870399;29;20456;-81
2022/04/06 04:19:13;;;;;;;;;;;;;;;7.55;90.21;100025.28;4886017;29;19920;-85
2022/04/06 04:21:38;;;;;;;;;;;;;;;7.27;91.68;100024.56;4892919;29;20286;-83
2022/04/06 04:24:05;;;;;;;;;;;;;;;7.04;93.14;100022.56;4891997;29;19923;-84
2022/04/06 04:26:31;;;;;;;;;;;;;;;6.99;93.94;100027.47;4875940;29;19927;-88
2022/04/06 04:28:57;;;;;;;;;;;;;;;6.94;92.89;100029.72;4889475;29;19920;-84
2022/04/06 04:31:23;;;;;;;;;;;;;;;6.94;94.10;100027.09;4892134;29;19920;-86
2022/04/06 04:33:48;;;;;;;;;;;;;;;6.92;94.85;100029.06;4890698;29;19979;-83
2022/04/06 04:36:15;;;;;;;;;;;;;;;6.71;96.03;100035.44;4892887;29;19995;-83
2022/04/06 04:38:42;;;;;;;;;;;;;;;6.46;98.53;100028.28;4890128;29;19920;-83
2022/04/06 04:41:07;;;;;;;;;;;;;;;6.57;98.40;100027.22;4892596;29;20268;-84
2022/04/06 04:43:33;;;;;;;;;;;;;;;6.52;97.84;100030.31;4890737;29;19926;-85
2022/04/06 04:45:58;;;;;;;;;;;;;;;6.60;98.03;100034.81;4891167;29;19919;-83
2022/04/06 04:48:24;;;;;;;;;;;;;;;6.67;98.87;100034.06;4891478;29;19923;-85
2022/04/06 04:50:50;;;;;;;;;;;;;;;6.70;97.30;100036.41;4866077;29;19927;-86
2022/04/06 04:53:15;;;;;;;;;;;;;;;6.40;98.85;100034.09;4887659;29;20393;-86
2022/04/06 04:55:41;;;;;;;;;;;;;;;6.43;99.24;100031.16;4884973;29;19923;-87
2022/04/06 04:58:07;;;;;;;;;;;;;;;6.17;100.00;100038.09;4884495;29;19952;-84
2022/04/06 05:00:33;;;;;;;;;;;;;;;6.42;100.00;100039.22;4883857;29;19930;-84
2022/04/06 05:02:58;;;;;;;;;;;;;;;6.58;100.00;100042.88;4883881;29;20368;-86
2022/04/06 05:05:29;;;;;;;;;;;;;;;6.55;99.43;100051.06;4895928;29;19931;-85
2022/04/06 05:07:57;;;;;;;;;;;;;;;6.61;99.18;100047.84;4885614;29;19927;-87
2022/04/06 05:10:22;;;;;;;;;;;;;;;6.61;99.49;100041.75;4904009;29;19920;-86
2022/04/06 05:12:48;;;;;;;;;;;;;;;6.74;98.31;100045.66;4904603;29;20009;-87
2022/04/06 05:15:14;;;;;;;;;;;;;;;6.48;99.59;100042.09;4902921;29;19975;-86
2022/04/06 05:17:39;;;;;;;;;;;;;;;6.41;100.00;100045.47;4897496;29;19930;-84
2022/04/06 05:20:06;;;;;;;;;;;;;;;6.46;100.00;100049.34;4896472;29;19935;-86
2022/04/06 05:22:31;;;;;;;;;;;;;;;6.46;100.00;100046.69;4889740;29;20022;-87
2022/04/06 05:24:57;;;;;;;;;;;;;;;6.53;99.80;100047.75;4869803;29;20007;-86
2022/04/06 05:27:22;;;;;;;;;;;;;;;6.66;98.41;100053.47;4888526;29;19979;-88
2022/04/06 05:29:48;;;;;;;;;;;;;;;6.68;98.51;100063.88;4886466;29;19927;-84
2022/04/06 05:32:13;;;;;;;;;;;;;;;6.68;98.00;100062.06;4880324;29;19945;-83
2022/04/06 05:34:39;;;;;;;;;;;;;;;7.09;96.59;100057.22;4886239;29;19915;-84
2022/04/06 05:37:05;;;;;;;;;;;;;;;7.12;94.60;100062.19;4890818;29;20016;-85
2022/04/06 05:39:30;;;;;;;;;;;;;;;7.84;88.37;100061.06;4888647;29;19920;-87
2022/04/06 05:41:55;;;;;;;;;;;;;;;8.09;87.82;100068.94;4887133;29;19919;-87
2022/04/06 05:44:23;;;;;;;;;;;;;;;8.64;84.47;100064.09;4884642;29;19973;-88
2022/04/06 05:46:48;;;;;;;;;;;;;;;8.62;81.25;100059.94;4885789;29;19927;-86
2022/04/06 05:49:14;;;;;;;;;;;;;;;8.80;80.96;100071.25;4885077;29;19943;-88
2022/04/06 05:51:40;;;;;;;;;;;;;;;9.06;79.86;100063.19;4885085;29;20380;-87
2022/04/06 05:54:05;;;;;;;;;;;;;;;9.41;77.41;100062.88;4885200;29;19919;-87
2022/04/06 05:56:34;;;;;;;;;;;;;;;10.07;75.96;100072.38;4885275;29;19920;-87
2022/04/06 05:59:01;;;;;;;;;;;;;;;11.07;71.06;100077.72;4886401;29;20368;-86
2022/04/06 06:01:30;;;;;;;;;;;;;;;11.76;64.77;100071.41;4885725;29;19915;-87
2022/04/06 06:03:55;;;;;;;;;;;;;;;11.41;65.60;100077.31;4869996;29;19920;-85
2022/04/06 06:06:21;;;;;;;;;;;;;;;11.73;64.28;100078.91;4881400;29;20470;-86
2022/04/06 06:08:48;;;;;;;;;;;;;;;12.69;60.74;100084.13;4880614;29;19976;-87
2022/04/06 06:11:13;;;;;;;;;;;;;;;12.44;60.59;100083.59;4882356;29;20018;-87
2022/04/06 06:13:38;;;;;;;;;;;;;;;12.30;61.89;100082.59;4881776;29;19955;-86
2022/04/06 06:16:04;;;;;;;;;;;;;;;12.53;60.90;100085.13;4865809;29;19991;-87
2022/04/06 06:18:30;;;;;;;;;;;;;;;11.87;62.73;100081.56;4882694;29;20015;-88
2022/04/06 06:20:57;;;;;;;;;;;;;;;13.20;58.89;100087.56;4881754;29;19920;-89
2022/04/06 06:23:22;;;;;;;;;;;;;;;13.02;58.08;100081.84;4881339;29;19920;-87
2022/04/06 06:25:48;;;;;;;;;;;;;;;13.04;58.80;100088.63;4895973;29;20276;-89
2022/04/06 06:28:16;;;;;;;;;;;;;;;12.99;59.30;100095.53;4883832;29;20387;-87
2022/04/06 06:30:42;;;;;;;;;;;;;;;13.60;57.23;100096.75;4881266;29;19916;-87
2022/04/06 06:33:07;;;;;;;;;;;;;;;14.46;54.02;100091.03;4881380;29;19919;-85
2022/04/06 06:35:35;;;;;;;;;;;;;;;13.22;58.22;100096.22;4881663;29;19923;-86
2022/04/06 06:38:01;;;;;;;;;;;;;;;13.43;57.21;100088.22;4865218;29;20071;-85
2022/04/06 06:40:27;;;;;;;;;;;;;;;13.27;57.50;100077.81;4881986;29;19960;-88
2022/04/06 06:42:53;;;;;;;;;;;;;;;13.77;56.14;100077.66;4882073;29;19926;-85
2022/04/06 06:45:19;;;;;;;;;;;;;;;14.09;55.63;100078.06;4884166;29;19920;-87
2022/04/06 06:47:47;;;;;;;;;;;;;;;14.15;55.06;100078.09;4886375;29;20008;-87
2022/04/06 06:50:14;;;;;;;;;;;;;;;14.44;54.40;100071.75;4865437;29;19963;-86
2022/04/06 06:52:40;;;;;;;;;;;;;;;15.48;50.82;100084.59;4881258;29;19924;-87
2022/04/06 06:55:10;;;;;;;;;;;;;;;14.15;55.47;100087.97;4867227;29;19933;-85
2022/04/06 06:57:35;;;;;;;;;;;;;;;13.94;56.85;100076.34;4888027;29;19978;-89
2022/04/06 07:00:01;;;;;;;;;;;;;;;14.68;53.84;100081.88;4895680;29;20323;-85
2022/04/06 07:02:26;;;;;;;;;;;;;;;15.21;52.94;100080.19;4893256;29;19919;-87
2022/04/06 07:04:52;;;;;;;;;;;;;;;14.40;56.07;100078.50;4891997;29;19951;-88
2022/04/06 07:07:17;;;;;;;;;;;;;;;15.92;51.84;100078.63;4882245;29;19927;-87
2022/04/06 07:09:43;;;;;;;;;;;;;;;17.12;47.37;100095.94;4891196;29;19919;-86
2022/04/06 07:12:10;;;;;;;;;;;;;;;16.94;47.85;100094.78;4896044;29;20376;-87
2022/04/06 07:14:36;;;;;;;;;;;;;;;16.82;48.37;100096.50;4887265;29;19947;-87
2022/04/06 07:17:01;;;;;;;;;;;;;;;17.50;45.55;100094.84;4904703;29;19899;-88
2022/04/06 07:19:27;;;;;;;;;;;;;;;18.12;44.51;100081.59;4890017;29;19986;-84
2022/04/06 07:21:52;;;;;;;;;;;;;;;18.38;44.15;100082.13;4882645;29;19920;-84
2022/04/06 07:24:18;;;;;;;;;;;;;;;18.32;45.63;100077.66;4884720;29;20371;-88
2022/04/06 07:26:44;;;;;;;;;;;;;;;17.47;47.93;100087.25;4895288;29;19926;-87
2022/04/06 07:29:11;;;;;;;;;;;;;;;17.41;47.09;100087.31;4882279;29;19970;-84
2022/04/06 07:31:38;;;;;;;;;;;;;;;16.32;50.53;100084.72;4898890;29;19919;-86
2022/04/06 07:34:04;;;;;;;;;;;;;;;15.74;53.67;100094.44;4887130;29;20444;-85
2022/04/06 07:36:30;;;;;;;;;;;;;;;16.37;52.89;100102.81;4885778;29;19920;-88
2022/04/06 07:38:55;;;;;;;;;;;;;;;16.99;50.98;100091.50;4879499;29;19920;-89
2022/04/06 07:41:24;;;;;;;;;;;;;;;16.23;53.00;100085.97;4892760;29;19923;-87
2022/04/06 07:43:50;;;;;;;;;;;;;;;16.24;52.61;100084.13;4902544;29;20079;-87
2022/04/06 07:46:18;;;;;;;;;;;;;;;16.98;51.97;100085.31;4887291;29;19978;-86
2022/04/06 07:48:46;;;;;;;;;;;;;;;17.67;49.12;100079.09;4884979;29;19995;-87
2022/04/06 07:51:14;;;;;;;;;;;;;;;17.82;47.98;100093.00;4887021;29;19927;-86
2022/04/06 07:53:40;;;;;;;;;;;;;;;17.53;48.98;100088.28;4899655;29;19919;-86
2022/04/06 07:56:06;;;;;;;;;;;;;;;17.79;48.72;100092.63;4894289;29;19923;-88
2022/04/06 07:58:32;;;;;;;;;;;;;;;16.59;51.71;100084.66;4897120;29;19927;-85
2022/04/06 08:00:58;;;;;;;;;;;;;;;17.11;51.72;100092.44;4880693;29;20367;-87
2022/04/06 08:03:23;;;;;;;;;;;;;;;17.22;50.64;100086.41;4883519;29;19923;-88
2022/04/06 08:05:53;;;;;;;;;;;;;;;16.96;52.32;100087.38;4884916;29;19919;-88
2022/04/06 08:08:20;;;;;;;;;;;;;;;17.19;51.44;100080.66;4901348;29;19928;-87
2022/04/06 08:10:48;;;;;;;;;;;;;;;16.42;53.84;100076.25;4896241;29;20294;-87
2022/04/06 08:13:14;;;;;;;;;;;;;;;16.42;54.31;100076.25;4880664;29;19919;-86
2022/04/06 08:15:39;;;;;;;;;;;;;;;15.56;57.13;100067.53;4881831;29;19927;-84
2022/04/06 08:18:06;;;;;;;;;;;;;;;15.41;59.61;100072.25;4896462;29;19923;-85
2022/04/06 08:20:31;;;;;;;;;;;;;;;15.25;59.41;100069.94;4902508;29;19923;-85
2022/04/06 08:22:57;;;;;;;;;;;;;;;14.80;62.02;100072.31;4900208;29;19954;-88
2022/04/06 08:25:22;;;;;;;;;;;;;;;14.49;65.47;100069.28;4899236;29;19958;-84
2022/04/06 08:27:48;;;;;;;;;;;;;;;14.52;65.03;100068.91;4888252;29;19930;-84
2022/04/06 08:30:16;;;;;;;;;;;;;;;14.46;67.11;100065.19;4883427;29;19916;-85
2022/04/06 08:32:42;;;;;;;;;;;;;;;14.90;67.46;100075.41;4868699;29;19944;-84
2022/04/06 08:35:08;;;;;;;;;;;;;;;15.45;65.17;100076.13;4892932;29;19924;-86
2022/04/06 08:37:34;;;;;;;;;;;;;;;15.72;64.90;100082.31;4881414;29;19924;-85
2022/04/06 08:40:00;;;;;;;;;;;;;;;16.00;64.07;100097.13;4879523;29;19919;-86
2022/04/06 08:42:27;;;;;;;;;;;;;;;15.50;66.30;100095.06;4897883;29;19919;-84
2022/04/06 08:44:53;;;;;;;;;;;;;;;15.69;65.95;100098.78;4889230;29;19923;-85
2022/04/06 08:47:19;;;;;;;;;;;;;;;14.56;72.25;100102.16;4898821;29;19923;-84
2022/04/06 08:49:46;;;;;;;;;;;;;;;15.10;70.39;100114.69;4875485;29;19919;-84
2022/04/06 08:52:11;;;;;;;;;;;;;;;14.86;70.81;100114.19;4902716;29;19920;-87
2022/04/06 08:54:37;;;;;;;;;;;;;;;15.15;69.13;100112.22;4901690;29;20044;-84
2022/04/06 08:57:03;;;;;;;;;;;;;;;15.15;70.44;100114.88;4882983;29;19920;-86
2022/04/06 08:59:28;;;;;;;;;;;;;;;14.77;73.73;100109.22;4889235;29;19991;-86
2022/04/06 09:01:55;;;;;;;;;;;;;;;15.13;70.69;100111.59;4880145;29;19920;-86
2022/04/06 09:04:23;;;;;;;;;;;;;;;15.51;68.79;100115.44;4899502;29;20367;-85
2022/04/06 09:06:49;;;;;;;;;;;;;;;15.45;69.90;100108.16;4896920;29;19930;-84
2022/04/06 09:09:19;;;;;;;;;;;;;;;14.75;71.19;100101.41;4888991;29;20013;-85
2022/04/06 09:11:45;;;;;;;;;;;;;;;14.47;74.13;100103.34;4896608;29;19923;-84
2022/04/06 09:14:12;;;;;;;;;;;;;;;15.38;70.45;100097.47;4882700;29;19971;-84
2022/04/06 09:16:37;;;;;;;;;;;;;;;15.99;67.69;100092.81;4866615;29;19919;-85
2022/04/06 09:19:10;;;;;;;;;;;;;;;15.53;69.73;100100.00;4891869;29;19927;-85
2022/04/06 09:21:38;;;;;;;;;;;;;;;15.42;70.23;100098.72;4893382;29;19919;-86
2022/04/06 09:24:03;;;;;;;;;;;;;;;16.03;66.33;100098.56;4895854;29;20399;-85
2022/04/06 09:26:31;;;;;;;;;;;;;;;16.57;65.11;100095.59;4892207;29;19927;-84
2022/04/06 09:28:57;;;;;;;;;;;;;;;16.23;66.81;100085.97;4881156;29;19920;-84
2022/04/06 09:31:23;;;;;;;;;;;;;;;16.60;64.47;100095.16;4883167;29;20399;-83
2022/04/06 09:33:55;;;;;;;;;;;;;;;15.82;66.96;100104.13;4885105;29;20064;-83
2022/04/06 09:36:21;;;;;;;;;;;;;;;15.72;68.89;100099.19;4891822;29;19963;-80
2022/04/06 09:38:48;;;;;;;;;;;;;;;15.30;71.96;100088.84;4885226;29;19924;-83
2022/04/06 09:41:15;;;;;;;;;;;;;;;14.92;72.55;100096.53;4897262;29;19920;-83
2022/04/06 09:43:41;;;;;;;;;;;;;;;14.91;74.53;100085.03;4917162;29;19919;-84
2022/04/06 09:49:19;;;;;;;;;;;;;;;14.69;77.30;100075.53;4878381;29;19919;-87
2022/04/06 09:51:52;;;;;;;;;;;;;;;14.88;74.56;100069.44;4897360;29;20443;-88
2022/04/06 09:54:35;;;;;;;;;;;;;;;14.55;77.04;100068.50;4901876;29;19958;-88
2022/04/06 09:57:01;;;;;;;;;;;;;;;14.31;77.76;100053.00;4870754;29;20022;-85
2022/04/06 09:59:31;;;;;;;;;;;;;;;13.77;81.64;100048.34;4895224;29;19958;-87
2022/04/06 10:02:02;;;;;;;;;;;;;;;13.84;83.29;100051.91;4904612;29;19958;-86
2022/04/06 10:04:30;;;;;;;;;;;;;;;13.41;84.58;100052.97;4871156;29;20439;-89
2022/04/06 10:06:57;;;;;;;;;;;;;;;13.41;85.69;100042.34;4870479;29;19946;-86
2022/04/06 10:09:24;;;;;;;;;;;;;;;13.14;89.91;100040.44;4883958;29;19976;-88
2022/04/06 10:11:51;;;;;;;;;;;;;;;13.02;91.62;100031.31;4899467;29;19922;-86
2022/04/06 10:14:16;;;;;;;;;;;;;;;13.51;88.90;100026.03;4898997;29;19926;-88
2022/04/06 10:16:42;;;;;;;;;;;;;;;13.32;89.49;100027.53;4899143;29;19919;-85
2022/04/06 10:19:11;;;;;;;;;;;;;;;13.69;87.20;100013.03;4900059;29;19923;-86
2022/04/06 10:21:41;;;;;;;;;;;;;;;13.55;87.32;100016.66;4882416;29;19919;-89
2022/04/06 10:24:13;;;;;;;;;;;;;;;13.29;88.83;100022.59;4888876;29;19920;-87
2022/04/06 10:26:57;;;;;;;;;;;;;;;13.37;88.49;100017.94;4898124;29;20002;-86
2022/04/06 10:29:22;;;;;;;;;;;;;;;13.48;87.49;100011.28;4888853;29;20311;-84
2022/04/06 10:31:48;;;;;;;;;;;;;;;13.63;87.74;100004.00;4893996;29;19919;-83
2022/04/06 10:34:21;;;;;;;;;;;;;;;13.51;88.21;100015.38;4882307;29;19931;-86
2022/04/06 10:37:03;;;;;;;;;;;;;;;13.38;89.17;100016.94;4867039;29;19923;-85
2022/04/06 10:39:29;;;;;;;;;;;;;;;13.18;90.63;100012.44;4886482;29;19986;-87
2022/04/06 10:42:14;;;;;;;;;;;;;;;13.07;91.37;99999.63;4888223;29;20366;-88
2022/04/06 10:44:40;;;;;;;;;;;;;;;12.68;93.24;100003.53;4887308;29;19926;-83
2022/04/06 10:47:07;;;;;;;;;;;;;;;12.68;93.11;100008.84;4878925;29;19962;-86
2022/04/06 10:49:33;;;;;;;;;;;;;;;12.85;92.65;100004.94;4895113;29;19976;-85
2022/04/06 10:51:59;;;;;;;;;;;;;;;13.03;91.30;100009.81;4888461;29;19919;-86
2022/04/06 10:54:27;;;;;;;;;;;;;;;13.26;88.06;99999.00;4876611;29;19934;-83
2022/04/06 10:56:54;;;;;;;;;;;;;;;14.07;83.12;99995.66;4888167;29;19927;-84
2022/04/06 10:59:20;;;;;;;;;;;;;;;14.45;80.63;99993.38;4904386;29;19924;-86
2022/04/06 11:01:48;;;;;;;;;;;;;;;15.38;74.96;99995.19;4899144;29;20306;-84
2022/04/06 11:04:20;;;;;;;;;;;;;;;15.34;73.06;99989.47;4894076;29;19926;-83
2022/04/06 11:06:55;;;;;;;;;;;;;;;14.59;77.33;99979.06;4895812;29;19930;-85
2022/04/06 11:12:16;;;;;;;;;;;;;;;13.79;82.56;99965.56;4893600;29;19923;-85
2022/04/06 11:14:45;;;;;;;;;;;;;;;13.67;84.23;99967.16;4888518;29;19954;-84
2022/04/06 11:17:48;;;;;;;;;;;;;;;13.40;85.35;99960.81;4892101;29;19920;-84
2022/04/06 11:20:17;;;;;;;;;;;;;;;13.67;84.12;99961.81;4898181;29;19932;-87
2022/04/06 11:22:49;;;;;;;;;;;;;;;13.91;81.20;99954.19;4893837;29;19986;-88
2022/04/06 11:25:15;;;;;;;;;;;;;;;13.95;81.66;99950.09;4901346;29;19931;-88
2022/04/06 11:27:42;;;;;;;;;;;;;;;14.91;74.50;99945.50;4911362;29;19930;-87
2022/04/06 11:30:09;;;;;;;;;;;;;;;15.36;68.96;99943.84;4907025;29;20404;-87
2022/04/06 11:32:36;;;;;;;;;;;;;;;15.33;68.01;99939.75;4912941;29;19927;-89
2022/04/06 11:35:05;;;;;;;;;;;;;;;15.22;65.97;99937.69;4905723;29;19919;-86
2022/04/06 11:37:31;;;;;;;;;;;;;;;15.76;62.99;99937.44;4879213;29;19931;-87
2022/04/06 11:40:00;;;;;;;;;;;;;;;16.13;60.09;99932.38;4906386;29;19924;-87
2022/04/06 11:42:25;;;;;;;;;;;;;;;16.89;57.64;99928.66;4902808;29;20006;-87
2022/04/06 11:44:52;;;;;;;;;;;;;;;16.52;60.03;99937.53;4909775;29;19930;-87
2022/04/06 11:47:35;;;;;;;;;;;;;;;16.51;60.48;99938.53;4913171;29;19919;-90
2022/04/06 11:50:01;;;;;;;;;;;;;;;15.48;61.79;99931.53;4898246;29;20406;-89
2022/04/06 11:52:27;;;;;;;;;;;;;;;14.89;63.19;99916.34;4908648;29;19948;-87
2022/04/06 11:54:54;;;;;;;;;;;;;;;14.89;64.42;99915.50;4905687;29;19923;-88
2022/04/06 11:57:21;;;;;;;;;;;;;;;14.91;62.59;99911.59;4885015;29;21425;-90
2022/04/06 11:59:53;;;;;;;;;;;;;;;14.66;62.93;99907.91;4906387;29;19943;-90
2022/04/06 12:02:28;;;;;;;;;;;;;;;14.52;64.39;99900.91;4909948;29;19923;-92
2022/04/06 12:05:01;;;;;;;;;;;;;;;14.58;64.27;99901.97;4897104;29;19920;-87
2022/04/06 12:07:28;;;;;;;;;;;;;;;14.55;65.47;99900.50;4891039;29;20018;-91
2022/04/06 12:09:57;;;;;;;;;;;;;;;14.75;64.34;99897.88;4904863;29;19962;-91
2022/04/06 12:12:24;;;;;;;;;;;;;;;14.75;64.45;99888.00;4899530;29;19918;-89
2022/04/06 12:14:53;;;;;;;;;;;;;;;14.73;65.65;99884.72;4888180;29;19934;-88
2022/04/06 12:17:19;;;;;;;;;;;;;;;14.78;66.63;99882.25;4885658;29;20347;-86
2022/04/06 12:22:34;;;;;;;;;;;;;;;15.11;60.74;99884.94;4904998;29;19927;-93
2022/04/06 12:25:00;;;;;;;;;;;;;;;14.76;63.98;99884.31;4886134;29;20010;-88
2022/04/06 12:27:26;;;;;;;;;;;;;;;14.89;64.36;99878.16;4901026;29;19955;-90
2022/04/06 12:30:07;;;;;;;;;;;;;;;14.95;64.60;99880.00;4887767;29;19927;-88
2022/04/06 12:32:42;;;;;;;;;;;;;;;14.97;63.55;99870.78;4891142;29;19919;-86
2022/04/06 12:35:24;;;;;;;;;;;;;;;14.83;63.76;99862.97;4899674;29;20391;-87
2022/04/06 12:37:49;;;;;;;;;;;;;;;14.43;64.55;99851.47;4882065;29;20439;-87
2022/04/06 12:40:24;;;;;;;;;;;;;;;14.68;63.22;99849.84;4900475;29;19927;-89
2022/04/06 12:42:50;;;;;;;;;;;;;;;14.94;64.18;99836.50;4891037;29;20459;-90
2022/04/06 12:45:18;;;;;;;;;;;;;;;14.92;64.27;99845.72;4886683;29;20300;-90
2022/04/06 12:47:44;;;;;;;;;;;;;;;15.14;64.39;99827.66;4902030;29;19982;-89
2022/04/06 12:50:12;;;;;;;;;;;;;;;15.03;65.30;99821.09;4870285;29;19970;-87
2022/04/06 12:52:37;;;;;;;;;;;;;;;14.88;66.65;99813.31;4905910;29;19937;-91
2022/04/06 12:55:05;;;;;;;;;;;;;;;14.97;66.64;99811.25;4906829;29;20006;-91